createdAt,value
2022-11-24T00:02:31.525Z,5.50
2022-11-24T00:05:38.380Z,5.51
2022-11-24T00:08:41.879Z,5.50
2022-11-24T00:11:43.537Z,5.55
2022-11-24T00:14:46.990Z,5.54
2022-11-24T00:17:48.571Z,5.64
2022-11-24T00:20:53.066Z,5.69
2022-11-24T00:23:55.043Z,5.66
2022-11-24T00:26:56.580Z,5.67
2022-11-24T00:29:59.501Z,5.60
2022-11-24T00:33:03.429Z,5.60
2022-11-24T00:36:05.421Z,5.62
2022-11-24T00:39:14.806Z,5.61
2022-11-24T00:42:17.032Z,5.66
2022-11-24T00:45:18.629Z,5.63
2022-11-24T00:48:20.310Z,5.70
2022-11-24T00:51:24.909Z,5.67
2022-11-24T00:54:26.452Z,5.70
2022-11-24T00:57:27.995Z,5.72
2022-11-24T01:00:29.681Z,5.76
2022-11-24T01:03:31.606Z,5.85
2022-11-24T01:06:35.226Z,5.87
2022-11-24T01:09:37.766Z,5.91
2022-11-24T01:12:39.698Z,5.97
2022-11-24T01:15:41.411Z,5.92
2022-11-24T01:18:43.197Z,5.92
2022-11-24T01:21:45.025Z,5.89
2022-11-24T01:24:46.669Z,5.97
2022-11-24T01:27:48.234Z,5.93
2022-11-24T01:31:05.240Z,5.92
2022-11-24T01:34:07.162Z,5.97
2022-11-24T01:37:08.782Z,5.89
2022-11-24T01:40:10.995Z,5.89
2022-11-24T01:43:21.394Z,5.95
2022-11-24T01:46:45.158Z,5.95
2022-11-24T01:49:50.857Z,5.97
2022-11-24T01:52:55.419Z,6.03
2022-11-24T01:55:58.030Z,6.01
2022-11-24T01:59:01.739Z,6.01
2022-11-24T02:02:03.869Z,6.01
2022-11-24T02:05:15.745Z,6.04
2022-11-24T02:08:42.436Z,5.91
2022-11-24T02:11:44.674Z,5.81
2022-11-24T02:14:46.371Z,5.85
2022-11-24T02:17:48.014Z,5.82
2022-11-24T02:20:49.641Z,5.85
2022-11-24T02:24:13.296Z,5.89
2022-11-24T02:27:14.912Z,5.98
2022-11-24T02:30:17.625Z,6.00
2022-11-24T02:33:20.816Z,5.98
2022-11-24T02:36:22.417Z,5.91
2022-11-24T02:39:24.127Z,5.93
2022-11-24T02:42:28.387Z,5.89
2022-11-24T02:45:31.367Z,5.85
2022-11-24T02:48:32.993Z,5.90
2022-11-24T02:51:34.704Z,5.85
2022-11-24T02:54:36.702Z,5.87
2022-11-24T02:57:38.610Z,5.86
2022-11-24T03:00:41.350Z,5.91
2022-11-24T03:03:43.526Z,6.00
2022-11-24T03:06:45.113Z,5.95
2022-11-24T03:09:47.095Z,5.95
2022-11-24T03:12:48.682Z,5.89
2022-11-24T03:15:50.268Z,5.95
2022-11-24T03:18:52.975Z,5.99
2022-11-24T03:21:54.558Z,6.04
2022-11-24T03:24:56.124Z,5.98
2022-11-24T03:27:58.283Z,5.92
2022-11-24T03:30:59.956Z,5.87
2022-11-24T03:34:01.621Z,5.87
2022-11-24T03:37:03.240Z,5.86
2022-11-24T03:40:05.341Z,5.86
2022-11-24T03:43:06.931Z,5.88
2022-11-24T03:46:08.674Z,5.98
2022-11-24T03:49:10.547Z,5.95
2022-11-24T03:52:12.365Z,6.04
2022-11-24T03:55:14.002Z,6.15
2022-11-24T03:58:15.644Z,6.18
2022-11-24T04:01:17.279Z,6.21
2022-11-24T04:04:19.574Z,6.36
2022-11-24T04:07:21.296Z,6.41
2022-11-24T04:10:26.296Z,6.52
2022-11-24T04:13:28.504Z,6.48
2022-11-24T04:16:30.146Z,6.52
2022-11-24T04:19:31.716Z,6.55
2022-11-24T04:22:33.499Z,6.53
2022-11-24T04:25:35.784Z,6.63
2022-11-24T04:28:38.515Z,6.66
2022-11-24T04:31:40.105Z,6.63
2022-11-24T04:34:41.736Z,6.68
2022-11-24T04:37:43.331Z,6.75
2022-11-24T04:40:44.974Z,6.70
2022-11-24T04:43:49.373Z,6.62
2022-11-24T04:46:51.053Z,6.61
2022-11-24T04:49:53.589Z,6.57
2022-11-24T04:52:55.164Z,6.61
2022-11-24T04:55:56.721Z,6.63
2022-11-24T04:58:58.375Z,6.69
2022-11-24T05:01:59.966Z,6.65
2022-11-24T05:05:01.670Z,6.69
2022-11-24T05:08:03.482Z,6.66
2022-11-24T05:11:06.773Z,6.71
2022-11-24T05:14:08.423Z,6.66
2022-11-24T05:17:09.998Z,6.63
2022-11-24T05:20:11.663Z,6.61
2022-11-24T05:23:13.314Z,6.61
2022-11-24T05:26:14.881Z,6.65
2022-11-24T05:29:16.517Z,6.53
2022-11-24T05:32:18.131Z,6.47
2022-11-24T05:35:19.765Z,6.45
2022-11-24T05:38:22.918Z,6.31
2022-11-24T05:41:24.491Z,6.16
2022-11-24T05:44:26.074Z,6.09
2022-11-24T05:47:27.729Z,6.09
2022-11-24T05:50:29.398Z,6.15
2022-11-24T05:53:31.030Z,6.12
2022-11-24T05:56:32.623Z,6.07
2022-11-24T05:59:34.546Z,6.04
2022-11-24T06:02:36.252Z,6.12
2022-11-24T06:05:38.249Z,6.11
2022-11-24T06:08:39.898Z,6.02
2022-11-24T06:11:41.691Z,6.02
2022-11-24T06:14:43.378Z,6.10
2022-11-24T06:17:52.285Z,6.17
2022-11-24T06:21:09.784Z,6.39
2022-11-24T06:24:12.796Z,6.36
2022-11-24T06:27:14.591Z,6.37
2022-11-24T06:30:18.263Z,6.31
2022-11-24T06:33:20.474Z,6.23
2022-11-24T06:36:22.390Z,6.41
2022-11-24T06:39:24.191Z,6.47
2022-11-24T06:42:25.771Z,6.59
2022-11-24T06:45:30.493Z,6.50
2022-11-24T06:48:33.913Z,6.51
2022-11-24T06:51:35.685Z,6.56
2022-11-24T06:54:37.528Z,6.56
2022-11-24T06:57:39.214Z,6.54
2022-11-24T07:00:40.918Z,6.48
2022-11-24T07:03:42.742Z,6.52
2022-11-24T07:06:45.002Z,6.57
2022-11-24T07:09:46.846Z,6.36
2022-11-24T07:12:48.810Z,6.25
2022-11-24T07:15:50.897Z,6.30
2022-11-24T07:18:54.054Z,6.39
2022-11-24T07:21:55.806Z,6.37
2022-11-24T07:24:57.438Z,6.40
2022-11-24T07:27:59.896Z,6.39
2022-11-24T07:31:09.077Z,6.44
2022-11-24T07:34:10.984Z,6.52
2022-11-24T07:37:12.541Z,6.46
2022-11-24T07:40:14.764Z,6.40
2022-11-24T07:43:20.184Z,6.23
2022-11-24T07:46:22.210Z,6.03
2022-11-24T07:49:24.123Z,6.00
2022-11-24T07:52:26.868Z,5.86
2022-11-24T07:55:28.554Z,5.87
2022-11-24T07:58:33.114Z,5.82
2022-11-24T08:01:35.186Z,5.80
2022-11-24T08:04:37.230Z,5.80
2022-11-24T08:07:39.352Z,5.79
2022-11-24T08:10:41.012Z,5.81
2022-11-24T08:13:43.245Z,5.81
2022-11-24T08:16:44.862Z,5.72
2022-11-24T08:19:46.505Z,5.65
2022-11-24T08:22:48.166Z,5.58
2022-11-24T08:25:54.154Z,5.51
2022-11-24T08:28:59.505Z,5.48
2022-11-24T08:32:01.127Z,5.48
2022-11-24T08:35:13.868Z,5.55
2022-11-24T08:38:17.325Z,5.68
2022-11-24T08:41:19.053Z,5.70
2022-11-24T08:44:20.672Z,5.64
2022-11-24T08:47:22.862Z,5.59
2022-11-24T08:50:26.374Z,5.67
2022-11-24T08:53:28.362Z,5.75
2022-11-24T08:56:32.545Z,5.73
2022-11-24T08:59:34.323Z,5.87
2022-11-24T09:02:36.137Z,6.03
2022-11-24T09:05:53.703Z,5.92
2022-11-24T09:08:55.726Z,5.95
2022-11-24T09:11:57.411Z,6.05
2022-11-24T09:14:59.139Z,6.24
2022-11-24T09:18:00.729Z,6.21
2022-11-24T09:21:09.572Z,6.30
2022-11-24T09:24:11.397Z,6.31
2022-11-24T09:27:13.017Z,6.48
2022-11-24T09:30:16.034Z,6.45
2022-11-24T09:33:17.755Z,6.52
2022-11-24T09:36:20.419Z,6.42
2022-11-24T09:39:22.079Z,6.45
2022-11-24T09:42:35.846Z,6.52
2022-11-24T09:46:05.389Z,6.55
2022-11-24T09:49:14.100Z,6.41
2022-11-24T09:52:29.134Z,6.59
2022-11-24T09:55:55.184Z,6.51
2022-11-24T09:59:17.799Z,6.65
2022-11-24T10:02:19.486Z,6.63
2022-11-24T10:05:26.036Z,6.80
2022-11-24T10:08:39.882Z,6.87
2022-11-24T10:11:52.205Z,6.91
2022-11-24T10:15:05.867Z,7.01
2022-11-24T10:18:31.394Z,6.99
2022-11-24T10:22:07.201Z,7.08
2022-11-24T10:25:17.085Z,7.02
2022-11-24T10:28:19.151Z,6.93
2022-11-24T10:31:35.264Z,6.96
2022-11-24T10:34:41.595Z,7.04
2022-11-24T10:38:21.688Z,7.07
2022-11-24T10:41:42.752Z,7.15
2022-11-24T10:44:44.449Z,7.22
2022-11-24T10:47:46.854Z,7.08
2022-11-24T10:50:48.607Z,7.11
2022-11-24T10:53:55.228Z,7.00
2022-11-24T10:56:56.795Z,7.14
2022-11-24T10:59:59.260Z,7.28
2022-11-24T11:03:17.548Z,7.18
2022-11-24T11:06:30.201Z,7.20
2022-11-24T11:09:31.909Z,7.15
2022-11-24T11:12:44.084Z,7.18
2022-11-24T11:15:46.411Z,7.10
2022-11-24T11:18:49.357Z,7.15
2022-11-24T11:22:19.950Z,7.14
2022-11-24T11:25:30.958Z,7.15
2022-11-24T11:28:32.703Z,7.32
2022-11-24T11:31:35.673Z,7.30
2022-11-24T11:34:37.770Z,7.15
2022-11-24T11:37:40.363Z,7.08
2022-11-24T11:40:43.776Z,7.08
2022-11-24T11:43:47.013Z,7.15
2022-11-24T11:46:48.757Z,7.11
2022-11-24T11:49:50.841Z,7.15
2022-11-24T11:53:23.403Z,7.26
2022-11-24T11:56:30.388Z,7.31
2022-11-24T11:59:41.849Z,7.39
2022-11-24T12:03:11.428Z,7.18
2022-11-24T12:06:34.251Z,7.21
2022-11-24T12:10:03.038Z,7.26
2022-11-24T12:13:33.728Z,7.25
2022-11-24T12:16:45.542Z,7.27
2022-11-24T12:20:02.270Z,7.36
2022-11-24T12:23:31.202Z,7.39
2022-11-24T12:26:53.104Z,7.49
2022-11-24T12:30:12.645Z,7.65
2022-11-24T12:33:34.166Z,7.65
2022-11-24T12:36:41.269Z,7.58
2022-11-24T12:39:56.983Z,7.48
2022-11-24T12:43:20.102Z,7.60
2022-11-24T12:46:47.135Z,7.76
2022-11-24T12:50:07.216Z,7.75
2022-11-24T12:53:15.982Z,7.83
2022-11-24T12:56:23.379Z,7.80
2022-11-24T12:59:54.311Z,7.85
2022-11-24T13:03:12.370Z,7.91
2022-11-24T13:06:27.378Z,7.88
2022-11-24T13:09:29.011Z,7.92
2022-11-24T13:12:30.753Z,7.90
2022-11-24T13:16:07.095Z,8.02
2022-11-24T13:19:19.631Z,8.21
2022-11-24T13:22:25.668Z,8.16
2022-11-24T13:25:35.075Z,8.04
2022-11-24T13:29:13.386Z,8.15
2022-11-24T13:32:31.968Z,8.15
2022-11-24T13:35:33.579Z,8.04
2022-11-24T13:39:02.393Z,8.00
2022-11-24T13:42:04.110Z,7.99
2022-11-24T13:45:45.052Z,7.95
2022-11-24T13:48:46.983Z,7.92
2022-11-24T13:51:48.539Z,7.99
2022-11-24T13:54:50.461Z,8.00
2022-11-24T13:57:56.872Z,8.05
2022-11-24T14:01:12.052Z,8.01
2022-11-24T14:04:32.507Z,7.93
2022-11-24T14:07:34.732Z,7.81
2022-11-24T14:10:37.973Z,7.73
2022-11-24T14:13:39.578Z,7.69
2022-11-24T14:16:41.142Z,7.70
2022-11-24T14:19:44.742Z,7.73
2022-11-24T14:22:46.427Z,7.78
2022-11-24T14:25:52.656Z,7.54
2022-11-24T14:29:03.708Z,7.39
2022-11-24T14:32:16.333Z,7.32
2022-11-24T14:35:29.989Z,7.26
2022-11-24T14:38:32.051Z,7.16
2022-11-24T14:41:33.916Z,7.01
2022-11-24T14:44:47.954Z,6.97
2022-11-24T14:47:49.874Z,6.90
2022-11-24T14:50:51.974Z,6.92
2022-11-24T14:54:01.048Z,6.89
2022-11-24T14:57:05.277Z,6.82
2022-11-24T15:00:15.338Z,6.78
2022-11-24T15:03:19.786Z,6.75
2022-11-24T15:06:21.464Z,6.67
2022-11-24T15:09:32.847Z,6.69
2022-11-24T15:12:39.405Z,6.74
2022-11-24T15:15:49.254Z,6.75
2022-11-24T15:19:03.310Z,6.70
2022-11-24T15:22:36.111Z,6.69
2022-11-24T15:25:37.755Z,6.60
2022-11-24T15:28:40.103Z,6.77
2022-11-24T15:31:45.245Z,6.79
2022-11-24T15:34:49.385Z,6.75
2022-11-24T15:37:52.364Z,6.81
2022-11-24T15:40:57.680Z,6.79
2022-11-24T15:43:59.403Z,6.68
2022-11-24T15:47:01.056Z,6.61
2022-11-24T15:50:02.811Z,6.56
2022-11-24T15:53:05.662Z,6.56
2022-11-24T15:56:13.371Z,6.54
2022-11-24T15:59:20.249Z,6.51
2022-11-24T16:02:22.675Z,6.37
2022-11-24T16:05:24.312Z,6.41
2022-11-24T16:08:26.067Z,6.32
2022-11-24T16:11:27.717Z,6.36
2022-11-24T16:14:30.024Z,6.32
2022-11-24T16:17:31.636Z,6.41
2022-11-24T16:20:35.967Z,6.36
2022-11-24T16:23:38.129Z,6.38
2022-11-24T16:26:39.779Z,6.26
2022-11-24T16:29:41.454Z,6.24
2022-11-24T16:32:43.321Z,6.35
2022-11-24T16:35:48.501Z,6.25
2022-11-24T16:38:50.463Z,6.36
2022-11-24T16:41:52.294Z,6.36
2022-11-24T16:44:54.145Z,6.39
2022-11-24T16:47:55.922Z,6.32
2022-11-24T16:51:05.690Z,6.36
2022-11-24T16:54:08.963Z,6.34
2022-11-24T16:57:14.957Z,6.29
2022-11-24T17:00:17.491Z,6.17
2022-11-24T17:03:19.122Z,6.11
2022-11-24T17:06:21.131Z,5.98
2022-11-24T17:09:23.193Z,5.80
2022-11-24T17:12:24.841Z,5.75
2022-11-24T17:15:33.604Z,5.64
2022-11-24T17:18:36.783Z,5.52
2022-11-24T17:21:38.737Z,5.49
2022-11-24T17:24:40.338Z,5.46
2022-11-24T17:27:41.932Z,5.52
2022-11-24T17:30:43.556Z,5.41
2022-11-24T17:33:45.230Z,5.37
2022-11-24T17:36:47.109Z,5.28
2022-11-24T17:40:05.999Z,5.15
2022-11-24T17:43:11.644Z,5.20
2022-11-24T17:46:13.362Z,5.24
2022-11-24T17:49:15.157Z,5.14
2022-11-24T17:52:18.154Z,5.09
2022-11-24T17:55:19.939Z,5.04
2022-11-24T17:58:22.154Z,4.91
2022-11-24T18:01:24.363Z,4.89
2022-11-24T18:04:26.304Z,4.91
2022-11-24T18:07:28.032Z,4.94
2022-11-24T18:10:31.901Z,5.01
2022-11-24T18:13:55.625Z,4.98
2022-11-24T18:16:55.728Z,5.04
2022-11-24T18:19:57.549Z,4.98
2022-11-24T18:23:05.968Z,4.91
2022-11-24T18:26:10.330Z,4.84
2022-11-24T18:29:12.278Z,4.82
2022-11-24T18:32:14.156Z,4.82
2022-11-24T18:35:16.254Z,4.69
2022-11-24T18:38:18.294Z,4.75
2022-11-24T18:41:21.071Z,4.61
2022-11-24T18:44:22.649Z,4.56
2022-11-24T18:47:24.540Z,4.51
2022-11-24T18:50:26.555Z,4.51
2022-11-24T18:53:28.918Z,4.48
2022-11-24T18:56:30.901Z,4.43
2022-11-24T18:59:32.986Z,4.30
2022-11-24T19:02:34.894Z,4.33
2022-11-24T19:05:36.795Z,4.31
2022-11-24T19:08:38.842Z,4.31
2022-11-24T19:11:43.448Z,4.28
2022-11-24T19:14:45.337Z,4.21
2022-11-24T19:17:47.525Z,4.15
2022-11-24T19:20:49.702Z,4.05
2022-11-24T19:23:51.691Z,4.01
2022-11-24T19:26:54.420Z,3.99
2022-11-24T19:29:56.388Z,3.90
2022-11-24T19:32:58.343Z,3.91
2022-11-24T19:36:09.081Z,3.97
2022-11-24T19:39:15.494Z,3.96
2022-11-24T19:42:18.299Z,3.98
2022-11-24T19:45:20.178Z,4.04
2022-11-24T19:48:22.033Z,4.02
2022-11-24T19:51:35.545Z,4.08
2022-11-24T19:54:37.670Z,4.09
2022-11-24T19:57:40.226Z,4.09
2022-11-24T20:00:41.933Z,4.24
2022-11-24T20:03:45.441Z,4.30
2022-11-24T20:06:48.112Z,4.25
2022-11-24T20:09:49.978Z,4.29
2022-11-24T20:12:51.497Z,4.27
2022-11-24T20:15:53.393Z,4.22
2022-11-24T20:19:00.401Z,4.26
2022-11-24T20:22:02.399Z,4.23
2022-11-24T20:25:04.447Z,4.23
2022-11-24T20:28:06.465Z,4.21
2022-11-24T20:31:14.900Z,4.13
2022-11-24T20:34:17.145Z,4.18
2022-11-24T20:37:18.917Z,4.19
2022-11-24T20:40:20.863Z,4.20
2022-11-24T20:43:22.698Z,4.11
2022-11-24T20:46:27.369Z,4.13
2022-11-24T20:49:29.779Z,4.13
2022-11-24T20:52:31.665Z,4.08
2022-11-24T20:55:34.467Z,3.85
2022-11-24T20:58:37.463Z,3.82
2022-11-24T21:01:42.800Z,3.82
2022-11-24T21:04:44.715Z,3.78
2022-11-24T21:07:46.694Z,3.69
2022-11-24T21:10:56.013Z,3.55
2022-11-24T21:13:58.102Z,3.43
2022-11-24T21:16:59.918Z,3.43
2022-11-24T21:20:01.706Z,3.51
2022-11-24T21:23:04.998Z,3.50
2022-11-24T21:26:12.988Z,3.32
2022-11-24T21:29:22.261Z,3.18
2022-11-24T21:32:25.086Z,3.10
2022-11-24T21:35:26.690Z,3.05
2022-11-24T21:38:28.278Z,3.06
2022-11-24T21:41:32.785Z,3.08
2022-11-24T21:44:35.018Z,3.17
2022-11-24T21:47:37.625Z,3.24
2022-11-24T21:50:39.242Z,3.20
2022-11-24T21:53:41.586Z,3.36
2022-11-24T21:56:43.219Z,3.34
2022-11-24T21:59:45.064Z,3.39
2022-11-24T22:02:47.339Z,3.43
2022-11-24T22:05:56.414Z,3.34
2022-11-24T22:08:57.982Z,3.32
2022-11-24T22:12:00.610Z,3.21
2022-11-24T22:15:02.236Z,3.37
2022-11-24T22:18:05.077Z,3.34
2022-11-24T22:21:10.260Z,3.36
2022-11-24T22:24:11.965Z,3.50
2022-11-24T22:27:13.543Z,3.44
2022-11-24T22:30:15.380Z,3.41
2022-11-24T22:33:16.976Z,3.34
2022-11-24T22:36:22.638Z,3.31
2022-11-24T22:39:24.241Z,3.25
2022-11-24T22:42:25.869Z,3.30
2022-11-24T22:45:27.457Z,3.24
2022-11-24T22:48:29.087Z,3.13
2022-11-24T22:51:33.032Z,3.16
2022-11-24T22:54:34.940Z,3.17
2022-11-24T22:57:36.717Z,3.15
2022-11-24T23:00:38.874Z,3.07
2022-11-24T23:03:40.907Z,2.91
2022-11-24T23:06:43.038Z,2.87
2022-11-24T23:09:44.845Z,2.86
2022-11-24T23:12:46.430Z,2.92
2022-11-24T23:15:47.969Z,2.89
2022-11-24T23:18:53.730Z,2.88
2022-11-24T23:21:55.701Z,2.78
2022-11-24T23:24:57.301Z,2.76
2022-11-24T23:27:58.912Z,2.69
2022-11-24T23:31:04.982Z,2.69
2022-11-24T23:34:06.732Z,2.65
2022-11-24T23:37:08.409Z,2.52
2022-11-24T23:40:10.341Z,2.44
2022-11-24T23:43:11.887Z,2.49
2022-11-24T23:46:20.257Z,2.52
2022-11-24T23:49:21.850Z,2.49
2022-11-24T23:52:23.472Z,2.49
2022-11-24T23:55:25.057Z,2.40
2022-11-24T23:58:26.751Z,2.34
